createdAt,value
2017-11-08T00:02:16.338Z,100529.29
2017-11-08T00:04:47.727Z,100529.29
2017-11-08T00:07:19.101Z,100525.03
2017-11-08T00:09:50.845Z,100523.82
2017-11-08T00:12:22.193Z,100524.25
2017-11-08T00:14:53.509Z,100523.48
2017-11-08T00:17:25.093Z,100518.31
2017-11-08T00:19:58.347Z,100512.45
2017-11-08T00:22:29.904Z,100511.68
2017-11-08T00:25:02.047Z,100519.83
2017-11-08T00:27:33.429Z,100520.28
2017-11-08T00:30:06.783Z,100522.82
2017-11-08T00:32:38.156Z,100520.36
2017-11-08T00:35:40.001Z,100524.21
2017-11-08T00:38:11.904Z,100526.30
2017-11-08T00:40:43.895Z,100533.30
2017-11-08T00:43:15.197Z,100530.23
2017-11-08T00:45:46.598Z,100527.19
2017-11-08T00:48:18.329Z,100529.86
2017-11-08T00:50:49.636Z,100534.22
2017-11-08T00:53:21.381Z,100529.78
2017-11-08T00:55:52.732Z,100526.13
2017-11-08T00:58:26.301Z,100524.38
2017-11-08T01:01:01.943Z,100519.75
2017-11-08T01:03:33.302Z,100526.36
2017-11-08T01:06:05.704Z,100518.78
2017-11-08T01:08:37.045Z,100510.09
2017-11-08T01:11:08.608Z,100503.14
2017-11-08T01:13:40.393Z,100489.61
2017-11-08T01:16:14.474Z,100480.43
2017-11-08T01:18:46.508Z,100469.33
2017-11-08T01:21:17.812Z,100480.13
2017-11-08T01:23:49.158Z,100479.38
2017-11-08T01:26:20.761Z,100488.63
2017-11-08T01:28:52.244Z,100485.98
2017-11-08T01:31:24.588Z,100494.39
2017-11-08T01:33:57.078Z,100499.84
2017-11-08T01:36:28.394Z,100499.76
2017-11-08T01:39:00.089Z,100504.42
2017-11-08T01:41:39.555Z,100513.01
2017-11-08T01:44:11.124Z,100505.88
2017-11-08T01:46:42.431Z,100508.77
2017-11-08T01:49:17.037Z,100506.50
2017-11-08T01:51:49.285Z,100502.03
2017-11-08T01:54:20.604Z,100501.61
2017-11-08T01:56:52.363Z,100500.78
2017-11-08T01:59:23.761Z,100497.41
2017-11-08T02:01:56.298Z,100491.81
2017-11-08T02:04:27.621Z,100493.58
2017-11-08T02:06:58.985Z,100486.58
2017-11-08T02:09:30.815Z,100482.23
2017-11-08T02:12:03.287Z,100470.42
2017-11-08T02:14:34.601Z,100471.73
2017-11-08T02:17:07.840Z,100467.45
2017-11-08T02:19:39.475Z,100460.58
2017-11-08T02:22:11.132Z,100468.11
2017-11-08T02:24:42.504Z,100469.45
2017-11-08T02:27:13.841Z,100469.50
2017-11-08T02:29:45.178Z,100471.67
2017-11-08T02:32:16.505Z,100474.77
2017-11-08T02:34:48.201Z,100465.52
2017-11-08T02:37:19.522Z,100462.97
2017-11-08T02:39:51.282Z,100446.34
2017-11-08T02:42:22.672Z,100443.10
2017-11-08T02:44:54.337Z,100436.58
2017-11-08T02:47:25.943Z,100453.17
2017-11-08T02:49:58.440Z,100465.34
2017-11-08T02:52:29.792Z,100465.17
2017-11-08T02:55:15.249Z,100468.31
2017-11-08T02:57:46.589Z,100469.62
2017-11-08T03:00:18.200Z,100474.83
2017-11-08T03:02:51.580Z,100474.66
2017-11-08T03:05:23.233Z,100474.53
2017-11-08T03:07:54.584Z,100477.10
2017-11-08T03:10:25.948Z,100476.22
2017-11-08T03:12:58.076Z,100475.69
2017-11-08T03:15:29.718Z,100473.84
2017-11-08T03:18:01.218Z,100475.40
2017-11-08T03:20:32.608Z,100475.88
2017-11-08T03:23:04.765Z,100475.88
2017-11-08T03:25:36.115Z,100483.02
2017-11-08T03:28:07.465Z,100477.77
2017-11-08T03:30:39.059Z,100486.27
2017-11-08T03:33:10.461Z,100481.33
2017-11-08T03:35:41.792Z,100488.26
2017-11-08T03:38:13.181Z,100483.02
2017-11-08T03:40:44.826Z,100489.20
2017-11-08T03:43:16.166Z,100487.00
2017-11-08T03:45:47.544Z,100491.71
2017-11-08T03:48:18.884Z,100485.43
2017-11-08T03:50:50.290Z,100488.05
2017-11-08T03:53:21.891Z,100496.80
2017-11-08T03:55:53.444Z,100493.72
2017-11-08T03:58:24.745Z,100481.47
2017-11-08T04:00:57.541Z,100486.41
2017-11-08T04:03:28.864Z,100475.45
2017-11-08T04:06:00.484Z,100480.62
2017-11-08T04:08:31.829Z,100473.80
2017-11-08T04:11:04.384Z,100470.22
2017-11-08T04:13:35.788Z,100467.19
2017-11-08T04:16:07.085Z,100470.45
2017-11-08T04:18:38.715Z,100466.48
2017-11-08T04:21:10.015Z,100479.67
2017-11-08T04:23:41.325Z,100482.34
2017-11-08T04:26:12.846Z,100480.31
2017-11-08T04:28:44.190Z,100487.73
2017-11-08T04:31:15.796Z,100488.63
2017-11-08T04:33:47.231Z,100491.33
2017-11-08T04:36:20.273Z,100493.89
2017-11-08T04:38:51.661Z,100492.63
2017-11-08T04:41:22.971Z,100488.30
2017-11-08T04:43:54.553Z,100483.48
2017-11-08T04:46:26.195Z,100484.02
2017-11-08T04:48:57.546Z,100483.76
2017-11-08T04:51:28.882Z,100483.48
2017-11-08T04:54:00.645Z,100486.00
2017-11-08T04:56:32.031Z,100486.89
2017-11-08T04:59:05.357Z,100488.30
2017-11-08T05:01:37.861Z,100488.30
2017-11-08T05:04:09.171Z,100484.37
2017-11-08T05:06:40.779Z,100491.12
2017-11-08T05:09:12.057Z,100489.89
2017-11-08T05:11:43.724Z,100499.69
2017-11-08T05:14:15.060Z,100495.33
2017-11-08T05:16:46.354Z,100496.52
2017-11-08T05:19:17.677Z,100500.97
2017-11-08T05:21:49.025Z,100503.11
2017-11-08T05:24:20.660Z,100503.06
2017-11-08T05:26:52.363Z,100503.97
2017-11-08T05:29:24.485Z,100507.11
2017-11-08T05:31:56.994Z,100508.52
2017-11-08T05:34:28.618Z,100511.16
2017-11-08T05:36:59.973Z,100512.70
2017-11-08T05:39:31.278Z,100517.31
2017-11-08T05:42:05.213Z,100518.17
2017-11-08T05:44:36.533Z,100518.30
2017-11-08T05:47:08.266Z,100523.28
2017-11-08T05:49:39.666Z,100523.81
2017-11-08T05:52:11.057Z,100524.39
2017-11-08T05:54:42.765Z,100525.73
2017-11-08T05:57:14.254Z,100537.10
2017-11-08T05:59:45.850Z,100532.37
2017-11-08T06:02:17.499Z,100528.89
2017-11-08T06:04:48.834Z,100530.63
2017-11-08T06:07:20.408Z,100533.34
2017-11-08T06:09:51.856Z,100528.73
2017-11-08T06:12:23.361Z,100527.07
2017-11-08T06:14:55.596Z,100525.74
2017-11-08T06:17:26.994Z,100527.52
2017-11-08T06:19:58.369Z,100525.31
2017-11-08T06:22:29.983Z,100529.67
2017-11-08T06:25:01.923Z,100534.07
2017-11-08T06:27:33.570Z,100531.41
2017-11-08T06:30:06.661Z,100533.97
2017-11-08T06:32:38.042Z,100537.86
2017-11-08T06:35:09.881Z,100536.95
2017-11-08T06:37:41.222Z,100538.11
2017-11-08T06:40:12.877Z,100546.34
2017-11-08T06:42:44.275Z,100545.48
2017-11-08T06:45:15.594Z,100550.80
2017-11-08T06:47:47.335Z,100552.09
2017-11-08T06:50:18.741Z,100551.41
2017-11-08T06:52:51.448Z,100556.45
2017-11-08T06:55:23.075Z,100552.94
2017-11-08T06:57:56.490Z,100562.48
2017-11-08T07:15:17.051Z,100566.28
2017-11-08T07:18:12.493Z,100573.98
2017-11-08T07:20:44.011Z,100574.05
2017-11-08T07:36:52.184Z,100592.42
2017-11-08T07:39:23.708Z,100599.86
2017-11-08T07:41:55.798Z,100603.41
2017-11-08T07:44:27.176Z,100607.36
2017-11-08T07:46:58.560Z,100602.88
2017-11-08T07:49:30.187Z,100602.00
2017-11-08T07:52:07.421Z,100602.27
2017-11-08T07:54:38.833Z,100606.55
2017-11-08T07:57:10.318Z,100603.16
2017-11-08T07:59:46.933Z,100606.28
2017-11-08T08:02:22.631Z,100605.41
2017-11-08T08:04:54.327Z,100600.52
2017-11-08T08:07:26.968Z,100605.00
2017-11-08T08:09:58.393Z,100607.05
2017-11-08T08:12:46.960Z,100608.48
2017-11-08T08:15:23.314Z,100609.62
2017-11-08T08:17:56.852Z,100616.42
2017-11-08T08:20:28.476Z,100620.29
2017-11-08T08:23:01.763Z,100616.27
2017-11-08T08:25:34.227Z,100620.77
2017-11-08T08:28:07.233Z,100624.63
2017-11-08T08:30:39.510Z,100626.39
2017-11-08T08:33:11.823Z,100627.25
2017-11-08T08:35:43.160Z,100621.66
2017-11-08T08:38:17.248Z,100625.06
2017-11-08T08:40:48.731Z,100622.28
2017-11-08T08:43:21.759Z,100624.53
2017-11-08T08:45:54.571Z,100626.27
2017-11-08T08:48:29.337Z,100625.22
2017-11-08T08:51:10.355Z,100627.86
2017-11-08T08:53:43.951Z,100628.14
2017-11-08T08:56:18.203Z,100630.20
2017-11-08T08:58:50.221Z,100630.11
2017-11-08T09:01:22.667Z,100630.54
2017-11-08T09:03:55.034Z,100633.52
2017-11-08T09:06:26.765Z,100629.89
2017-11-08T09:09:01.825Z,100634.80
2017-11-08T09:11:36.546Z,100638.64
2017-11-08T09:14:09.525Z,100641.73
2017-11-08T09:16:46.901Z,100641.18
2017-11-08T09:19:22.202Z,100642.88
2017-11-08T09:21:53.886Z,100646.38
2017-11-08T09:24:25.313Z,100649.51
2017-11-08T09:27:04.970Z,100648.80
2017-11-08T09:29:36.478Z,100654.47
2017-11-08T09:32:10.804Z,100653.97
2017-11-08T09:34:47.799Z,100652.02
2017-11-08T09:37:25.167Z,100655.44
2017-11-08T09:39:56.945Z,100651.48
2017-11-08T09:42:36.592Z,100657.52
2017-11-08T09:45:12.493Z,100655.50
2017-11-08T09:47:45.105Z,100658.20
2017-11-08T09:50:17.637Z,100651.47
2017-11-08T09:52:49.271Z,100654.19
2017-11-08T09:55:25.380Z,100652.53
2017-11-08T09:57:57.188Z,100652.50
2017-11-08T10:00:31.793Z,100665.08
2017-11-08T10:03:06.773Z,100664.78
2017-11-08T10:05:38.133Z,100657.20
2017-11-08T10:08:10.740Z,100662.31
2017-11-08T10:10:46.398Z,100656.97
2017-11-08T10:13:20.983Z,100667.18
2017-11-08T10:15:54.265Z,100673.36
2017-11-08T10:18:25.730Z,100675.53
2017-11-08T10:20:57.382Z,100675.68
2017-11-08T10:23:28.770Z,100680.95
2017-11-08T10:26:04.064Z,100677.98
2017-11-08T10:28:37.389Z,100679.73
2017-11-08T10:31:09.144Z,100682.23
2017-11-08T10:33:42.915Z,100679.72
2017-11-08T10:36:16.720Z,100678.52
2017-11-08T10:38:49.593Z,100682.45
2017-11-08T10:41:24.017Z,100680.72
2017-11-08T10:43:55.511Z,100685.86
2017-11-08T10:46:28.054Z,100680.37
2017-11-08T10:49:23.120Z,100680.99
2017-11-08T10:51:55.460Z,100680.62
2017-11-08T10:54:30.826Z,100680.89
2017-11-08T10:57:04.819Z,100688.37
2017-11-08T10:59:41.576Z,100683.61
2017-11-08T11:02:20.514Z,100678.39
2017-11-08T11:04:52.493Z,100681.77
2017-11-08T11:07:25.088Z,100675.58
2017-11-08T11:09:58.425Z,100672.72
2017-11-08T11:12:30.026Z,100670.68
2017-11-08T11:15:04.094Z,100676.47
2017-11-08T11:17:35.514Z,100675.00
2017-11-08T11:20:07.509Z,100675.98
2017-11-08T11:22:39.311Z,100685.66
2017-11-08T11:25:10.996Z,100684.63
2017-11-08T11:27:43.541Z,100684.77
2017-11-08T11:30:16.160Z,100685.88
2017-11-08T11:32:47.884Z,100687.56
2017-11-08T11:35:20.975Z,100687.55
2017-11-08T11:37:53.099Z,100682.45
2017-11-08T11:40:25.690Z,100687.98
2017-11-08T11:42:57.167Z,100695.53
2017-11-08T11:48:19.517Z,100694.87
2017-11-08T11:50:51.780Z,100693.20
2017-11-08T11:53:24.514Z,100688.56
2017-11-08T11:55:56.301Z,100692.05
2017-11-08T11:58:28.209Z,100687.66
2017-11-08T12:01:00.072Z,100691.69
2017-11-08T12:03:33.063Z,100693.02
2017-11-08T12:06:14.064Z,100690.78
2017-11-08T12:08:46.289Z,100689.75
2017-11-08T12:11:21.896Z,100697.72
2017-11-08T12:13:54.125Z,100695.64
2017-11-08T12:16:27.437Z,100700.11
2017-11-08T12:18:59.544Z,100700.11
2017-11-08T12:21:31.941Z,100693.53
2017-11-08T12:24:10.197Z,100699.25
2017-11-08T12:26:45.858Z,100705.63
2017-11-08T12:29:22.635Z,100703.20
2017-11-08T12:31:54.188Z,100706.54
2017-11-08T12:34:26.220Z,100704.63
2017-11-08T12:36:57.885Z,100703.10
2017-11-08T12:39:29.759Z,100715.61
2017-11-08T12:42:20.470Z,100716.56
2017-11-08T12:44:58.230Z,100712.73
2017-11-08T12:47:30.349Z,100713.56
2017-11-08T12:50:03.852Z,100712.04
2017-11-08T12:52:36.344Z,100714.33
2017-11-08T12:55:09.159Z,100723.84
2017-11-08T12:57:46.447Z,100724.89
2017-11-08T13:00:21.285Z,100724.63
2017-11-08T13:02:53.218Z,100725.94
2017-11-08T13:05:29.097Z,100735.13
2017-11-08T13:08:07.272Z,100736.58
2017-11-08T13:10:44.428Z,100735.92
2017-11-08T13:13:16.322Z,100740.72
2017-11-08T13:15:48.733Z,100743.08
2017-11-08T13:18:21.954Z,100734.78
2017-11-08T13:20:53.530Z,100733.80
2017-11-08T13:23:26.969Z,100736.97
2017-11-08T13:25:58.555Z,100736.95
2017-11-08T13:28:30.749Z,100735.72
2017-11-08T13:31:07.502Z,100735.94
2017-11-08T13:33:39.693Z,100744.72
2017-11-08T13:36:11.842Z,100739.31
2017-11-08T13:38:48.515Z,100745.80
2017-11-08T13:41:26.347Z,100750.58
2017-11-08T13:44:05.830Z,100754.25
2017-11-08T13:46:43.355Z,100757.84
2017-11-08T13:49:25.337Z,100764.80
2017-11-08T13:51:57.738Z,100766.67
2017-11-08T13:57:37.836Z,100770.60
2017-11-08T14:00:10.123Z,100770.84
2017-11-08T14:02:43.102Z,100775.72
2017-11-08T14:05:15.818Z,100782.02
2017-11-08T14:07:47.762Z,100780.54
2017-11-08T14:13:26.573Z,100774.09
2017-11-08T14:15:58.529Z,100783.24
2017-11-08T14:18:31.562Z,100782.31
2017-11-08T14:21:03.861Z,100785.02
2017-11-08T14:23:37.063Z,100779.06
2017-11-08T14:26:09.246Z,100777.86
2017-11-08T14:28:40.639Z,100784.62
2017-11-08T14:31:13.002Z,100784.99
2017-11-08T14:33:45.787Z,100790.25
2017-11-08T14:36:18.933Z,100790.66
2017-11-08T14:38:51.327Z,100788.59
2017-11-08T14:41:30.031Z,100789.18
2017-11-08T14:44:08.771Z,100793.02
2017-11-08T14:46:40.135Z,100795.25
2017-11-08T14:49:11.871Z,100802.05
2017-11-08T14:51:43.340Z,100795.91
2017-11-08T14:54:14.984Z,100797.23
2017-11-08T14:56:47.274Z,100793.30
2017-11-08T14:59:19.821Z,100798.38
2017-11-08T15:01:54.252Z,100800.31
2017-11-08T15:04:28.361Z,100802.63
2017-11-08T15:06:59.920Z,100805.11
2017-11-08T15:09:38.052Z,100807.11
2017-11-08T15:12:10.955Z,100807.71
2017-11-08T15:15:00.484Z,100809.66
2017-11-08T15:17:32.135Z,100808.60
2017-11-08T15:20:10.990Z,100806.08
2017-11-08T15:22:46.320Z,100813.23
2017-11-08T19:45:54.432Z,100982.68
2017-11-08T19:48:30.288Z,100981.81
2017-11-08T19:57:28.725Z,100988.94
2017-11-08T22:54:36.086Z,101034.08
2017-11-08T22:57:09.834Z,101039.61
2017-11-08T22:59:41.735Z,101040.72
2017-11-08T23:02:17.874Z,101041.38
2017-11-08T23:04:52.467Z,101045.94
2017-11-08T23:07:26.571Z,101046.80
2017-11-08T23:10:00.166Z,101043.41
2017-11-08T23:12:35.026Z,101046.67
2017-11-08T23:15:09.944Z,101044.80
2017-11-08T23:17:46.647Z,101046.67
2017-11-08T23:20:27.869Z,101049.76
2017-11-08T23:23:04.084Z,101052.14
2017-11-08T23:25:51.249Z,101048.03
2017-11-08T23:28:34.759Z,101042.27
2017-11-08T23:31:14.414Z,101050.50
2017-11-08T23:33:58.652Z,101041.56
2017-11-08T23:36:32.697Z,101041.21
2017-11-08T23:39:08.508Z,101040.95
2017-11-08T23:41:41.304Z,101037.60
2017-11-08T23:44:15.425Z,101038.27
2017-11-08T23:46:47.859Z,101042.34
2017-11-08T23:49:20.493Z,101037.43
2017-11-08T23:52:33.220Z,101040.61
2017-11-08T23:55:21.058Z,101041.70
2017-11-08T23:57:59.349Z,101046.16
